createdAt,value
2022-12-24T00:01:19.420Z,99777.38
2022-12-24T00:03:48.214Z,99787.88
2022-12-24T00:06:23.031Z,99776.19
2022-12-24T00:08:53.711Z,99785.88
2022-12-24T00:11:21.046Z,99783.34
2022-12-24T00:13:48.857Z,99801.50
2022-12-24T00:16:16.146Z,99780.66
2022-12-24T00:18:46.286Z,99788.81
2022-12-24T00:21:17.292Z,99782.88
2022-12-24T00:23:44.580Z,99792.25
2022-12-24T00:26:12.970Z,99782.28
2022-12-24T00:28:41.072Z,99774.09
2022-12-24T00:31:14.702Z,99784.69
2022-12-24T00:33:42.929Z,99776.31
2022-12-24T00:36:10.330Z,99781.31
2022-12-24T00:38:38.107Z,99780.44
2022-12-24T00:41:24.459Z,99773.38
2022-12-24T00:44:10.048Z,99784.94
2022-12-24T00:46:40.286Z,99783.34
2022-12-24T00:49:08.677Z,99794.06
2022-12-24T00:51:37.070Z,99786.00
2022-12-24T00:54:05.162Z,99784.59
2022-12-24T00:56:32.731Z,99795.03
2022-12-24T00:58:59.789Z,99782.38
2022-12-24T01:01:27.200Z,99789.22
2022-12-24T01:04:17.645Z,99790.78
2022-12-24T01:06:44.788Z,99798.97
2022-12-24T01:09:11.706Z,99802.34
2022-12-24T01:11:38.896Z,99803.31
2022-12-24T01:14:05.913Z,99809.50
2022-12-24T01:16:32.899Z,99815.44
2022-12-24T01:18:59.866Z,99816.59
2022-12-24T01:21:27.274Z,99826.78
2022-12-24T01:23:54.160Z,99824.03
2022-12-24T01:26:21.096Z,99827.28
2022-12-24T01:28:48.033Z,99835.50
2022-12-24T01:31:18.316Z,99836.72
2022-12-24T01:33:48.600Z,99842.47
2022-12-24T01:36:15.806Z,99839.16
2022-12-24T01:38:42.780Z,99839.47
2022-12-24T01:41:35.737Z,99848.97
2022-12-24T01:44:36.431Z,99853.22
2022-12-24T01:47:29.479Z,99846.75
2022-12-24T01:50:04.748Z,99854.81
2022-12-24T01:52:35.299Z,99856.50
2022-12-24T01:55:08.957Z,99856.88
2022-12-24T01:57:52.420Z,99860.19
2022-12-24T02:00:19.537Z,99862.03
2022-12-24T02:02:50.845Z,99874.59
2022-12-24T02:05:30.327Z,99871.91
2022-12-24T02:07:59.966Z,99879.84
2022-12-24T02:10:26.851Z,99880.84
2022-12-24T02:12:54.268Z,99883.38
2022-12-24T02:15:21.902Z,99885.09
2022-12-24T02:17:54.601Z,99891.06
2022-12-24T02:21:45.191Z,99899.13
2022-12-24T02:24:52.583Z,99908.75
2022-12-24T02:27:32.651Z,99916.81
2022-12-24T02:30:10.878Z,99914.13
2022-12-24T02:33:00.955Z,99921.94
2022-12-24T02:35:44.380Z,99924.63
2022-12-24T02:38:22.852Z,99916.56
2022-12-24T02:40:56.711Z,99930.72
2022-12-24T02:43:29.611Z,99937.81
2022-12-24T02:46:03.137Z,99957.47
2022-12-24T02:48:31.004Z,99948.41
2022-12-24T02:51:10.205Z,99960.72
2022-12-24T02:53:38.374Z,99956.34
2022-12-24T02:56:55.733Z,99953.41
2022-12-24T02:59:44.055Z,99968.53
2022-12-24T03:02:38.706Z,99981.00
2022-12-24T03:05:23.894Z,99989.19
2022-12-24T03:08:34.005Z,99980.53
2022-12-24T03:11:08.432Z,99981.66
2022-12-24T03:13:35.666Z,99990.84
2022-12-24T03:16:07.427Z,99993.78
2022-12-24T03:18:38.988Z,99993.31
2022-12-24T03:21:27.269Z,100009.69
2022-12-24T03:23:56.802Z,100017.25
2022-12-24T03:26:24.540Z,100013.25
2022-12-24T03:28:51.511Z,100028.66
2022-12-24T03:31:18.900Z,100013.50
2022-12-24T03:33:46.679Z,100032.44
2022-12-24T03:36:13.990Z,100045.88
2022-12-24T03:38:41.479Z,100046.84
2022-12-24T03:41:08.669Z,100035.88
2022-12-24T03:43:35.756Z,100040.25
2022-12-24T03:46:08.038Z,100039.38
2022-12-24T03:48:36.251Z,100042.81
2022-12-24T03:51:04.255Z,100046.97
2022-12-24T03:53:31.686Z,100060.66
2022-12-24T03:55:58.625Z,100053.41
2022-12-24T03:58:26.143Z,100070.28
2022-12-24T04:00:54.159Z,100074.53
2022-12-24T04:03:21.631Z,100068.19
2022-12-24T04:05:48.591Z,100079.22
2022-12-24T04:08:15.540Z,100075.41
2022-12-24T04:10:43.101Z,100063.94
2022-12-24T04:13:10.022Z,100072.72
2022-12-24T04:15:36.940Z,100069.91
2022-12-24T04:18:04.191Z,100084.84
2022-12-24T04:20:31.557Z,100092.03
2022-12-24T04:22:58.519Z,100093.59
2022-12-24T04:25:25.423Z,100098.00
2022-12-24T04:27:52.349Z,100106.66
2022-12-24T04:30:19.458Z,100111.06
2022-12-24T04:32:46.380Z,100120.09
2022-12-24T04:35:13.390Z,100111.06
2022-12-24T04:37:40.323Z,100117.31
2022-12-24T04:40:08.159Z,100119.25
2022-12-24T04:42:35.160Z,100123.75
2022-12-24T04:45:02.360Z,100127.69
2022-12-24T04:47:29.312Z,100125.25
2022-12-24T04:49:56.240Z,100136.13
2022-12-24T04:52:23.213Z,100138.44
2022-12-24T04:54:50.307Z,100134.16
2022-12-24T04:57:17.504Z,100142.09
2022-12-24T04:59:44.495Z,100150.44
2022-12-24T05:02:11.615Z,100153.84
2022-12-24T05:04:38.635Z,100162.88
2022-12-24T05:07:05.678Z,100159.22
2022-12-24T05:09:32.594Z,100164.59
2022-12-24T05:11:59.486Z,100167.03
2022-12-24T05:14:26.901Z,100161.50
2022-12-24T05:16:53.885Z,100158.13
2022-12-24T05:19:20.784Z,100163.34
2022-12-24T05:22:07.933Z,100173.13
2022-12-24T05:24:53.838Z,100180.22
2022-12-24T05:27:20.903Z,100184.63
2022-12-24T05:29:47.814Z,100181.94
2022-12-24T05:32:15.161Z,100186.31
2022-12-24T05:34:42.341Z,100200.25
2022-12-24T05:37:09.302Z,100196.97
2022-12-24T05:39:36.185Z,100193.31
2022-12-24T05:42:03.579Z,100206.63
2022-12-24T05:44:30.473Z,100201.09
2022-12-24T05:46:57.771Z,100209.44
2022-12-24T05:49:24.651Z,100223.72
2022-12-24T05:51:51.578Z,100213.84
2022-12-24T05:54:18.514Z,100214.69
2022-12-24T05:56:46.178Z,100226.28
2022-12-24T05:59:13.382Z,100229.84
2022-12-24T06:01:40.565Z,100229.34
2022-12-24T06:04:07.531Z,100242.03
2022-12-24T06:06:34.804Z,100247.50
2022-12-24T06:09:01.791Z,100248.50
2022-12-24T06:11:29.930Z,100263.63
2022-12-24T06:13:57.456Z,100259.13
2022-12-24T06:16:25.829Z,100253.00
2022-12-24T06:18:53.289Z,100257.66
2022-12-24T06:21:20.459Z,100265.59
2022-12-24T06:23:48.220Z,100267.19
2022-12-24T06:26:19.861Z,100270.84
2022-12-24T06:28:48.621Z,100266.59
2022-12-24T06:31:19.488Z,100278.16
2022-12-24T06:33:46.541Z,100287.09
2022-12-24T06:36:24.034Z,100268.41
2022-12-24T06:38:52.946Z,100269.13
2022-12-24T06:41:20.731Z,100271.22
2022-12-24T06:43:50.640Z,100272.78
2022-12-24T06:46:19.063Z,100287.47
2022-12-24T06:48:47.093Z,100280.00
2022-12-24T06:51:16.245Z,100284.78
2022-12-24T06:53:43.136Z,100282.31
2022-12-24T06:56:12.943Z,100294.91
2022-12-24T06:58:41.208Z,100299.56
2022-12-24T07:01:13.658Z,100298.06
2022-12-24T07:03:42.920Z,100295.38
2022-12-24T07:06:28.401Z,100305.28
2022-12-24T07:08:55.817Z,100300.75
2022-12-24T07:11:25.476Z,100297.84
2022-12-24T07:13:52.685Z,100309.44
2022-12-24T07:16:20.027Z,100303.22
2022-12-24T07:18:47.917Z,100315.66
2022-12-24T07:21:15.094Z,100314.56
2022-12-24T07:23:42.236Z,100321.66
2022-12-24T07:26:10.716Z,100313.81
2022-12-24T07:28:38.155Z,100329.59
2022-12-24T07:31:05.197Z,100331.66
2022-12-24T07:33:32.267Z,100334.25
2022-12-24T07:36:05.743Z,100332.53
2022-12-24T07:38:34.412Z,100341.44
2022-12-24T07:41:01.551Z,100349.50
2022-12-24T07:43:28.803Z,100353.41
2022-12-24T07:45:57.979Z,100341.78
2022-12-24T07:48:27.671Z,100350.00
2022-12-24T07:50:55.078Z,100360.00
2022-12-24T07:53:24.128Z,100369.28
2022-12-24T07:55:51.032Z,100357.19
2022-12-24T07:58:18.225Z,100366.22
2022-12-24T08:00:45.681Z,100361.94
2022-12-24T08:03:18.474Z,100362.03
2022-12-24T08:05:46.602Z,100376.19
2022-12-24T08:08:13.663Z,100366.56
2022-12-24T08:10:42.839Z,100373.03
2022-12-24T08:13:09.966Z,100374.00
2022-12-24T08:15:36.879Z,100382.19
2022-12-24T08:18:04.273Z,100376.69
2022-12-24T08:20:31.161Z,100378.63
2022-12-24T08:22:58.104Z,100373.03
2022-12-24T08:25:25.164Z,100377.44
2022-12-24T08:27:52.091Z,100393.53
2022-12-24T08:30:21.267Z,100392.31
2022-12-24T08:32:48.820Z,100402.72
2022-12-24T08:35:16.061Z,100413.09
2022-12-24T08:37:43.100Z,100413.72
2022-12-24T08:40:11.615Z,100409.09
2022-12-24T08:42:38.537Z,100417.66
2022-12-24T08:45:07.007Z,100421.91
2022-12-24T08:47:34.499Z,100419.75
2022-12-24T08:50:01.774Z,100409.63
2022-12-24T08:52:28.638Z,100425.16
2022-12-24T08:54:55.596Z,100415.91
2022-12-24T08:57:23.044Z,100417.50
2022-12-24T08:59:50.036Z,100424.34
2022-12-24T09:02:17.234Z,100420.44
2022-12-24T09:04:44.742Z,100438.06
2022-12-24T09:07:11.815Z,100426.31
2022-12-24T09:09:38.898Z,100429.84
2022-12-24T09:12:07.394Z,100429.50
2022-12-24T09:14:34.512Z,100447.22
2022-12-24T09:17:01.525Z,100449.78
2022-12-24T09:19:28.884Z,100457.97
2022-12-24T09:21:55.763Z,100464.94
2022-12-24T09:24:22.830Z,100476.44
2022-12-24T09:26:55.626Z,100474.50
2022-12-24T09:29:24.429Z,100486.84
2022-12-24T09:31:51.483Z,100484.88
2022-12-24T09:34:18.456Z,100483.03
2022-12-24T09:36:46.383Z,100495.50
2022-12-24T09:39:13.871Z,100502.47
2022-12-24T09:42:05.297Z,100511.16
2022-12-24T09:45:06.702Z,100513.75
2022-12-24T09:47:51.893Z,100518.63
2022-12-24T09:51:08.851Z,100519.59
2022-12-24T09:54:00.957Z,100521.31
2022-12-24T09:56:35.176Z,100531.59
2022-12-24T09:59:06.054Z,100532.41
2022-12-24T10:01:34.654Z,100533.41
2022-12-24T10:04:13.177Z,100542.22
2022-12-24T10:06:46.079Z,100545.66
2022-12-24T10:09:41.719Z,100538.69
2022-12-24T10:13:00.552Z,100534.63
2022-12-24T10:16:00.772Z,100541.59
2022-12-24T10:18:40.259Z,100551.50
2022-12-24T10:21:33.494Z,100542.56
2022-12-24T10:24:22.453Z,100556.38
2022-12-24T10:27:01.407Z,100555.53
2022-12-24T10:29:39.279Z,100563.59
2022-12-24T10:32:08.848Z,100560.50
2022-12-24T10:34:49.594Z,100555.88
2022-12-24T10:37:23.940Z,100561.13
2022-12-24T10:39:52.131Z,100557.59
2022-12-24T10:42:21.734Z,100568.47
2022-12-24T10:44:55.476Z,100554.50
2022-12-24T10:47:23.735Z,100560.75
2022-12-24T10:50:13.991Z,100567.19
2022-12-24T10:52:44.755Z,100564.75
2022-12-24T10:55:24.308Z,100569.41
2022-12-24T10:58:05.352Z,100577.34
2022-12-24T11:00:36.207Z,100568.28
2022-12-24T11:03:12.713Z,100581.25
2022-12-24T11:05:40.883Z,100574.81
2022-12-24T11:08:18.362Z,100575.44
2022-12-24T11:11:02.371Z,100576.91
2022-12-24T11:13:38.430Z,100580.13
2022-12-24T11:16:20.876Z,100589.03
2022-12-24T11:18:52.575Z,100577.44
2022-12-24T11:21:29.956Z,100582.81
2022-12-24T11:24:04.267Z,100577.84
2022-12-24T11:26:32.065Z,100572.31
2022-12-24T11:29:14.957Z,100579.56
2022-12-24T11:31:44.282Z,100575.78
2022-12-24T11:34:35.745Z,100574.56
2022-12-24T11:37:23.057Z,100574.69
2022-12-24T11:39:53.743Z,100562.22
2022-12-24T11:42:38.883Z,100559.66
2022-12-24T11:45:25.109Z,100563.31
2022-12-24T11:47:54.109Z,100561.38
2022-12-24T11:50:36.851Z,100575.19
2022-12-24T11:53:04.190Z,100566.22
2022-12-24T11:55:55.152Z,100575.03
2022-12-24T11:58:49.786Z,100561.72
2022-12-24T12:01:54.343Z,100568.69
2022-12-24T12:04:29.185Z,100572.00
2022-12-24T12:07:08.337Z,100570.88
2022-12-24T12:09:49.280Z,100569.78
2022-12-24T12:12:23.671Z,100577.84
2022-12-24T12:14:56.206Z,100577.84
2022-12-24T12:17:35.607Z,100573.34
2022-12-24T12:20:35.745Z,100578.84
2022-12-24T12:23:33.932Z,100594.97
2022-12-24T12:26:22.070Z,100609.06
2022-12-24T12:29:01.089Z,100618.00
2022-12-24T12:31:42.875Z,100608.34
2022-12-24T12:34:25.138Z,100607.38
2022-12-24T12:36:57.946Z,100614.78
2022-12-24T12:39:25.099Z,100605.47
2022-12-24T12:42:07.508Z,100622.13
2022-12-24T12:45:05.150Z,100606.03
2022-12-24T12:48:28.767Z,100610.34
2022-12-24T12:51:23.834Z,100612.25
2022-12-24T12:54:21.035Z,100634.88
2022-12-24T12:56:54.126Z,100625.03
2022-12-24T12:59:40.371Z,100619.16
2022-12-24T13:03:00.764Z,100622.53
2022-12-24T13:05:51.709Z,100627.41
2022-12-24T13:08:52.580Z,100620.38
2022-12-24T13:12:00.103Z,100625.88
2022-12-24T13:15:02.542Z,100630.41
2022-12-24T13:17:53.430Z,100644.38
2022-12-24T13:20:26.945Z,100637.88
2022-12-24T13:22:56.765Z,100640.47
2022-12-24T13:25:41.876Z,100653.94
2022-12-24T13:28:32.269Z,100653.56
2022-12-24T13:31:11.954Z,100649.28
2022-12-24T13:33:38.980Z,100656.00
2022-12-24T13:36:16.605Z,100658.91
2022-12-24T13:39:03.950Z,100651.47
2022-12-24T13:41:40.664Z,100663.66
2022-12-24T13:44:12.930Z,100653.66
2022-12-24T13:47:07.205Z,100662.78
2022-12-24T13:49:47.052Z,100661.19
2022-12-24T13:52:21.902Z,100665.75
2022-12-24T13:54:55.013Z,100665.47
2022-12-24T13:57:44.635Z,100672.72
2022-12-24T14:00:21.403Z,100674.03
2022-12-24T14:02:54.026Z,100681.72
2022-12-24T14:05:39.928Z,100684.41
2022-12-24T14:08:16.550Z,100689.91
2022-12-24T14:11:04.940Z,100690.81
2022-12-24T14:13:40.903Z,100704.88
2022-12-24T14:16:19.194Z,100699.38
2022-12-24T14:19:19.289Z,100702.81
2022-12-24T14:22:10.095Z,100707.22
2022-12-24T14:24:43.774Z,100710.63
2022-12-24T14:27:22.784Z,100730.44
2022-12-24T14:30:09.352Z,100730.69
2022-12-24T14:32:41.036Z,100745.97
2022-12-24T14:35:13.935Z,100754.38
2022-12-24T14:37:46.391Z,100752.03
2022-12-24T14:40:19.227Z,100761.13
2022-12-24T14:43:01.433Z,100762.31
2022-12-24T14:45:47.720Z,100764.25
2022-12-24T14:48:29.811Z,100762.66
2022-12-24T14:51:15.073Z,100775.97
2022-12-24T14:54:09.735Z,100779.78
2022-12-24T14:56:36.695Z,100780.03
2022-12-24T14:59:19.865Z,100775.59
2022-12-24T15:01:47.428Z,100776.69
2022-12-24T15:04:16.927Z,100784.22
2022-12-24T15:06:52.518Z,100789.75
2022-12-24T15:09:31.134Z,100797.94
2022-12-24T15:12:04.795Z,100796.53
2022-12-24T15:14:42.976Z,100796.97
2022-12-24T15:17:12.579Z,100808.81
2022-12-24T15:19:47.905Z,100812.72
2022-12-24T15:22:31.441Z,100820.25
2022-12-24T15:24:59.077Z,100819.63
2022-12-24T15:27:31.852Z,100827.16
2022-12-24T15:29:59.068Z,100819.56
2022-12-24T15:32:25.997Z,100827.81
2022-12-24T15:34:55.458Z,100825.59
2022-12-24T15:37:38.930Z,100838.16
2022-12-24T15:40:22.054Z,100839.44
2022-12-24T15:42:49.004Z,100847.50
2022-12-24T15:45:27.545Z,100859.22
2022-12-24T15:48:07.198Z,100843.50
2022-12-24T15:50:47.282Z,100850.50
2022-12-24T15:53:26.475Z,100854.25
2022-12-24T15:56:11.502Z,100850.72
2022-12-24T15:58:42.462Z,100850.06
2022-12-24T16:01:09.562Z,100858.97
2022-12-24T16:03:40.406Z,100867.16
2022-12-24T16:06:11.759Z,100866.53
2022-12-24T16:08:40.965Z,100868.44
2022-12-24T16:11:23.946Z,100875.66
2022-12-24T16:13:50.908Z,100872.09
2022-12-24T16:16:21.982Z,100876.63
2022-12-24T16:18:59.887Z,100884.13
2022-12-24T16:21:39.285Z,100884.47
2022-12-24T16:24:15.284Z,100892.72
2022-12-24T16:26:42.184Z,100892.09
2022-12-24T16:29:11.791Z,100892.09
2022-12-24T16:31:56.570Z,100905.63
2022-12-24T16:34:32.890Z,100896.16
2022-12-24T16:37:01.281Z,100912.16
2022-12-24T16:39:34.321Z,100895.41
2022-12-24T16:42:22.718Z,100902.91
2022-12-24T16:44:53.232Z,100905.50
2022-12-24T16:47:26.128Z,100918.28
2022-12-24T16:49:53.310Z,100905.28
2022-12-24T16:52:28.587Z,100908.91
2022-12-24T16:54:57.372Z,100919.66
2022-12-24T16:57:24.871Z,100923.38
2022-12-24T16:59:53.001Z,100939.72
2022-12-24T17:02:22.955Z,100932.75
2022-12-24T17:04:50.180Z,100932.81
2022-12-24T17:07:20.092Z,100931.78
2022-12-24T17:09:47.007Z,100942.97
2022-12-24T17:12:14.784Z,100942.63
2022-12-24T17:14:42.510Z,100945.94
2022-12-24T17:17:23.916Z,100949.34
2022-12-24T17:19:51.135Z,100947.16
2022-12-24T17:22:18.165Z,100945.94
2022-12-24T17:24:45.212Z,100947.44
2022-12-24T17:27:13.047Z,100947.63
2022-12-24T17:29:40.731Z,100942.91
2022-12-24T17:32:07.692Z,100952.50
2022-12-24T17:34:34.796Z,100950.13
2022-12-24T17:37:01.672Z,100954.72
2022-12-24T17:39:28.709Z,100960.94
2022-12-24T17:41:55.668Z,100954.81
2022-12-24T17:44:22.912Z,100963.84
2022-12-24T17:46:50.046Z,100961.03
2022-12-24T17:49:17.114Z,100966.03
2022-12-24T17:51:46.007Z,100960.41
2022-12-24T17:54:13.376Z,100974.88
2022-12-24T17:56:40.359Z,100973.47
2022-12-24T17:59:08.114Z,100970.28
2022-12-24T18:01:35.305Z,100967.72
2022-12-24T18:04:04.095Z,100971.66
2022-12-24T18:06:31.518Z,100963.78
2022-12-24T18:08:58.562Z,100971.94
2022-12-24T18:11:35.137Z,100969.81
2022-12-24T18:14:04.579Z,100972.59
2022-12-24T18:16:40.495Z,100982.56
2022-12-24T18:19:11.223Z,100987.06
2022-12-24T18:21:39.274Z,100977.59
2022-12-24T18:24:06.744Z,100978.34
2022-12-24T18:26:33.804Z,100984.84
2022-12-24T18:29:04.413Z,100981.31
2022-12-24T18:31:33.650Z,100987.44
2022-12-24T18:34:01.972Z,100995.28
2022-12-24T18:36:29.388Z,100986.31
2022-12-24T18:38:56.736Z,100989.53
2022-12-24T18:41:28.247Z,100976.41
2022-12-24T18:43:57.799Z,100988.22
2022-12-24T18:46:29.319Z,100974.41
2022-12-24T18:48:57.629Z,100973.25
2022-12-24T18:51:30.032Z,100985.16
2022-12-24T18:53:57.074Z,100979.56
2022-12-24T18:56:26.810Z,100976.28
2022-12-24T18:58:56.589Z,100976.56
2022-12-24T19:01:33.349Z,100979.25
2022-12-24T19:04:00.980Z,100977.03
2022-12-24T19:06:28.295Z,100981.81
2022-12-24T19:08:57.609Z,100987.19
2022-12-24T19:11:28.226Z,100996.16
2022-12-24T19:13:55.310Z,100993.66
2022-12-24T19:16:23.004Z,100984.50
2022-12-24T19:18:50.324Z,100997.03
2022-12-24T19:21:18.957Z,100992.53
2022-12-24T19:23:46.992Z,101003.53
2022-12-24T19:26:17.167Z,100999.88
2022-12-24T19:28:45.032Z,100995.31
2022-12-24T19:31:22.492Z,100997.34
2022-12-24T19:33:56.061Z,101001.63
2022-12-24T19:36:29.670Z,100996.91
2022-12-24T19:38:58.395Z,101011.00
2022-12-24T19:41:28.890Z,101006.13
2022-12-24T19:43:59.359Z,101013.22
2022-12-24T19:46:30.915Z,101010.56
2022-12-24T19:49:05.028Z,101016.19
2022-12-24T19:51:33.146Z,101011.84
2022-12-24T19:54:00.632Z,101016.06
2022-12-24T19:56:29.943Z,101023.69
2022-12-24T19:58:57.888Z,101022.66
2022-12-24T20:01:28.476Z,101035.00
2022-12-24T20:03:56.172Z,101030.34
2022-12-24T20:06:27.077Z,101026.34
2022-12-24T20:09:05.532Z,101028.09
2022-12-24T20:11:32.930Z,101033.00
2022-12-24T20:14:02.205Z,101023.44
2022-12-24T20:16:30.178Z,101032.78
2022-12-24T20:19:04.616Z,101037.78
2022-12-24T20:21:32.829Z,101037.88
2022-12-24T20:23:59.792Z,101047.06
2022-12-24T20:26:28.774Z,101044.84
2022-12-24T20:28:55.895Z,101035.97
2022-12-24T20:31:26.795Z,101031.50
2022-12-24T20:33:54.307Z,101035.25
2022-12-24T20:36:23.169Z,101045.75
2022-12-24T20:38:50.582Z,101049.47
2022-12-24T20:41:21.170Z,101047.88
2022-12-24T20:43:49.091Z,101045.97
2022-12-24T20:46:18.516Z,101053.72
2022-12-24T20:48:45.982Z,101046.34
2022-12-24T20:51:27.672Z,101052.28
2022-12-24T20:53:57.998Z,101053.69
2022-12-24T20:56:25.313Z,101062.22
2022-12-24T20:58:53.123Z,101065.28
2022-12-24T21:01:25.572Z,101062.50
2022-12-24T21:03:56.439Z,101061.81
2022-12-24T21:06:24.641Z,101051.69
2022-12-24T21:08:53.612Z,101063.00
2022-12-24T21:11:40.585Z,101057.03
2022-12-24T21:14:08.054Z,101055.69
2022-12-24T21:16:36.282Z,101052.81
2022-12-24T21:19:04.339Z,101051.03
2022-12-24T21:21:31.492Z,101041.41
2022-12-24T21:23:59.013Z,101047.47
2022-12-24T21:26:26.051Z,101060.13
2022-12-24T21:28:54.607Z,101061.69
2022-12-24T21:31:21.982Z,101058.50
2022-12-24T21:33:49.138Z,101054.03
2022-12-24T21:36:17.891Z,101054.88
2022-12-24T21:38:45.022Z,101060.13
2022-12-24T21:41:15.716Z,101058.59
2022-12-24T21:43:43.245Z,101060.66
2022-12-24T21:46:19.276Z,101070.91
2022-12-24T21:49:05.200Z,101057.13
2022-12-24T21:51:32.542Z,101054.94
2022-12-24T21:54:18.719Z,101044.69
2022-12-24T21:57:04.405Z,101050.19
2022-12-24T21:59:31.536Z,101050.81
2022-12-24T22:01:58.926Z,101062.69
2022-12-24T22:04:26.433Z,101078.84
2022-12-24T22:07:12.284Z,101065.88
2022-12-24T22:09:58.881Z,101081.06
2022-12-24T22:12:31.953Z,101072.34
2022-12-24T22:14:59.221Z,101071.66
2022-12-24T22:17:27.224Z,101076.28
2022-12-24T22:19:57.424Z,101061.25
2022-12-24T22:22:25.275Z,101057.97
2022-12-24T22:24:52.573Z,101060.81
2022-12-24T22:27:19.568Z,101052.78
2022-12-24T22:29:46.696Z,101058.06
2022-12-24T22:32:13.587Z,101055.56
2022-12-24T22:34:40.562Z,101054.53
2022-12-24T22:37:07.539Z,101052.78
2022-12-24T22:39:34.488Z,101064.22
2022-12-24T22:42:01.432Z,101062.22
2022-12-24T22:44:28.864Z,101073.53
2022-12-24T22:46:55.779Z,101079.56
2022-12-24T22:49:22.981Z,101067.94
2022-12-24T22:51:50.170Z,101068.63
2022-12-24T22:54:17.096Z,101065.25
2022-12-24T22:56:44.440Z,101060.00
2022-12-24T22:59:14.223Z,101069.91
2022-12-24T23:01:47.190Z,101067.16
2022-12-24T23:04:14.895Z,101063.53
2022-12-24T23:06:42.176Z,101058.88
2022-12-24T23:09:12.140Z,101056.34
2022-12-24T23:11:40.709Z,101050.31
2022-12-24T23:14:28.723Z,101039.97
2022-12-24T23:16:55.732Z,101057.97
2022-12-24T23:19:22.640Z,101047.63
2022-12-24T23:21:50.832Z,101038.03
2022-12-24T23:24:17.800Z,101030.19
2022-12-24T23:26:44.715Z,101034.16
2022-12-24T23:29:11.633Z,101038.75
2022-12-24T23:31:38.640Z,101041.63
2022-12-24T23:34:05.704Z,101052.22
2022-12-24T23:36:32.771Z,101044.53
2022-12-24T23:38:59.741Z,101040.91
2022-12-24T23:41:26.876Z,101044.69
2022-12-24T23:43:53.865Z,101047.53
2022-12-24T23:46:21.986Z,101044.06
2022-12-24T23:48:53.365Z,101037.00
2022-12-24T23:51:23.657Z,101042.34
2022-12-24T23:53:52.880Z,101045.84
2022-12-24T23:56:20.930Z,101041.50
2022-12-24T23:58:50.085Z,101040.84
